CXPRP CYXU-CNZ8
Flight info
| Callsign | CXPRP |
|---|---|
| Flight time | N/A |
| Altitude | 3500 |
| Route | CYXU/33 VFR EASTBOUND |
| Aircraft | DA42/L-V/N |
Departure
| Time | N/A |
|---|---|
| Airport | London International Airport (CYXU) |
Arrival
| Time | 2026-04-30 22:55 |
|---|---|
| Airport | Grimsby Regional Airport (CNZ8) |
| Time | Latitude | Longitude | Altitude | Speed | Heading |
|---|---|---|---|---|---|
| 2026-04-30 22:44 | 43.18721 | -80.12359 | 3574 ft | 157 kts | 68° |
| 2026-04-30 22:45 | 43.19887 | -80.05536 | 3499 ft | 158 kts | 76° |
| 2026-04-30 22:45 | 43.20223 | -80.02309 | 3533 ft | 159 kts | 77° |
| 2026-04-30 22:46 | 43.20566 | -79.99215 | 3531 ft | 158 kts | 72° |
| 2026-04-30 22:47 | 43.21926 | -79.93404 | 3415 ft | 159 kts | 64° |
| 2026-04-30 22:47 | 43.22633 | -79.90492 | 3370 ft | 161 kts | 72° |
| 2026-04-30 22:48 | 43.23046 | -79.87427 | 3367 ft | 158 kts | 73° |
| 2026-04-30 22:49 | 43.23828 | -79.83058 | 3470 ft | 153 kts | 70° |
| 2026-04-30 22:49 | 43.24319 | -79.78445 | 3534 ft | 161 kts | 87° |
| 2026-04-30 22:50 | 43.23632 | -79.71295 | 3107 ft | 168 kts | 103° |
| 2026-04-30 22:51 | 43.22847 | -79.67657 | 2593 ft | 169 kts | 105° |
| 2026-04-30 22:51 | 43.22047 | -79.64256 | 2250 ft | 156 kts | 109° |
| 2026-04-30 22:52 | 43.21639 | -79.62666 | 2105 ft | 151 kts | 109° |
| 2026-04-30 22:52 | 43.20835 | -79.59605 | 1832 ft | 148 kts | 114° |
| 2026-04-30 22:53 | 43.19356 | -79.57828 | 1831 ft | 126 kts | 194° |
| 2026-04-30 22:53 | 43.17806 | -79.58713 | 1221 ft | 88 kts | 212° |
| 2026-04-30 22:53 | 43.17205 | -79.59106 | 1021 ft | 85 kts | 211° |
| 2026-04-30 22:54 | 43.16084 | -79.59864 | 636 ft | 68 kts | 210° |
| 2026-04-30 22:55 | 43.15630 | -79.60095 | 630 ft | 6 kts | 281° |
| 2026-04-30 22:55 | 43.15632 | -79.60101 | 630 ft | 0 kts | 297° |